Terminal Aerodrome Forecast
Issued by NWS

Home | Current Version | Previous Version | Text Only | Print | Product List | Glossary On
Versions: 1 2 3 4 5 6 7 8 9 10 11 12 13 14
265
FTUS41 KAKQ 241736
TAFPHF
TAF
KPHF 241736Z 2418/2518 29008KT P6SM SKC
     FM242300 23007KT P6SM BKN080
     FM250800 30006KT P6SM SCT150=

USA.gov is the U.S. government's official web portal to all federal, state and local government web resources and services.